Time;durP1;ratioP1;P1;durP2;ratioP2;P2;SDS_P1;SDS_P2;PMS_P1;PMS_P2;Temp;Humidity;BMP_temperature;BMP_pressure;BME280_temperature;BME280_humidity;BME280_pressure;Samples;Min_cycle;Max_cycle;Signal;HPM_P1;HPM_P2
2022/07/30 00:01:04;;;;;;;6.00;1.80;;;;;;;;;;5053046;28;20091;-61
2022/07/30 00:03:30;;;;;;;9.18;2.00;;;;;;;;;;5052488;28;20065;-62
2022/07/30 00:05:56;;;;;;;6.32;1.45;;;;;;;;;;5051725;28;20040;-61
2022/07/30 00:08:23;;;;;;;5.70;1.65;;;;;;;;;;5037840;28;20166;-62
2022/07/30 00:10:49;;;;;;;2.08;1.08;;;;;;;;;;5051731;28;20473;-62
2022/07/30 00:13:15;;;;;;;4.20;1.80;;;;;;;;;;5051805;28;20035;-61
2022/07/30 00:15:41;;;;;;;3.28;1.48;;;;;;;;;;5053383;28;20025;-61
2022/07/30 00:18:07;;;;;;;4.03;1.58;;;;;;;;;;5046315;28;20108;-62
2022/07/30 00:20:33;;;;;;;3.00;1.40;;;;;;;;;;5034021;28;20400;-61
2022/07/30 00:23:02;;;;;;;8.18;1.80;;;;;;;;;;5050442;28;20033;-61
2022/07/30 00:25:28;;;;;;;4.47;1.55;;;;;;;;;;5052352;28;20033;-61
2022/07/30 00:27:54;;;;;;;4.47;1.48;;;;;;;;;;5044769;28;20507;-62
2022/07/30 00:30:20;;;;;;;4.22;1.92;;;;;;;;;;5050233;28;20033;-62
2022/07/30 00:32:46;;;;;;;4.78;1.50;;;;;;;;;;5052016;28;20468;-61
2022/07/30 00:35:12;;;;;;;4.95;1.60;;;;;;;;;;5051820;28;20040;-62
2022/07/30 00:37:38;;;;;;;3.10;1.50;;;;;;;;;;5041021;28;20029;-62
2022/07/30 00:40:05;;;;;;;4.55;1.42;;;;;;;;;;5052402;28;20072;-61
2022/07/30 00:42:44;;;;;;;3.88;1.35;;;;;;;;;;5052871;28;20025;-62
2022/07/30 00:45:10;;;;;;;7.10;1.63;;;;;;;;;;5048307;28;20029;-61
2022/07/30 00:47:37;;;;;;;2.22;1.27;;;;;;;;;;5049017;28;20112;-61
2022/07/30 00:50:03;;;;;;;2.75;1.55;;;;;;;;;;5048003;28;20043;-61
2022/07/30 00:52:31;;;;;;;4.63;1.42;;;;;;;;;;5035653;28;20036;-62
2022/07/30 00:54:57;;;;;;;4.53;1.80;;;;;;;;;;5050391;28;20057;-61
2022/07/30 00:57:23;;;;;;;6.63;1.65;;;;;;;;;;5047164;28;20115;-61
2022/07/30 00:59:49;;;;;;;5.50;1.67;;;;;;;;;;5047077;28;20096;-61
2022/07/30 01:02:15;;;;;;;7.53;1.85;;;;;;;;;;5048139;28;20036;-60
2022/07/30 01:04:41;;;;;;;7.75;1.70;;;;;;;;;;5047419;28;20108;-59
2022/07/30 01:07:07;;;;;;;5.65;1.65;;;;;;;;;;5047596;28;20071;-60
2022/07/30 01:09:33;;;;;;;4.70;1.60;;;;;;;;;;5050917;28;20033;-60
2022/07/30 01:11:59;;;;;;;5.45;1.63;;;;;;;;;;5051097;28;20032;-60
2022/07/30 01:14:25;;;;;;;4.32;1.30;;;;;;;;;;5045092;28;20504;-60
2022/07/30 01:16:51;;;;;;;4.20;1.63;;;;;;;;;;5047562;28;20028;-60
2022/07/30 01:22:15;;;;;;;5.85;1.70;;;;;;;;;;5052019;28;20044;-60
2022/07/30 01:24:44;;;;;;;4.65;1.50;;;;;;;;;;5043999;28;20108;-60
2022/07/30 01:27:10;;;;;;;4.68;1.80;;;;;;;;;;5047480;28;20047;-60
2022/07/30 01:29:38;;;;;;;5.95;1.77;;;;;;;;;;5037910;28;20152;-60
2022/07/30 01:32:06;;;;;;;6.22;1.88;;;;;;;;;;5043407;28;20032;-60
2022/07/30 01:34:33;;;;;;;8.10;1.63;;;;;;;;;;5044749;28;20037;-60
2022/07/30 01:37:00;;;;;;;3.00;1.65;;;;;;;;;;5048622;28;20033;-61
2022/07/30 01:39:26;;;;;;;4.40;1.70;;;;;;;;;;5046848;28;20032;-60
2022/07/30 01:41:53;;;;;;;4.18;1.58;;;;;;;;;;5050822;28;20028;-60
2022/07/30 01:44:19;;;;;;;7.97;1.63;;;;;;;;;;5053715;28;20040;-60
2022/07/30 01:46:46;;;;;;;6.72;1.42;;;;;;;;;;5049730;28;20477;-60
2022/07/30 01:49:12;;;;;;;5.50;1.58;;;;;;;;;;5040241;28;20741;-60
2022/07/30 01:51:38;;;;;;;5.18;1.67;;;;;;;;;;5051072;28;20100;-60
2022/07/30 01:54:06;;;;;;;4.18;2.08;;;;;;;;;;5044567;28;20462;-59
2022/07/30 01:56:33;;;;;;;8.20;2.03;;;;;;;;;;5049024;28;20061;-60
2022/07/30 01:59:00;;;;;;;3.88;1.45;;;;;;;;;;5048865;28;20037;-60
2022/07/30 02:01:26;;;;;;;6.13;1.40;;;;;;;;;;5050470;28;20132;-60
2022/07/30 02:03:52;;;;;;;5.18;1.60;;;;;;;;;;5048695;28;20033;-60
2022/07/30 02:06:22;;;;;;;4.45;1.48;;;;;;;;;;5045070;28;20065;-59
2022/07/30 02:08:52;;;;;;;4.20;1.67;;;;;;;;;;5036963;28;20029;-60
2022/07/30 02:12:27;;;;;;;3.30;1.48;;;;;;;;;;5050618;28;20689;-59
2022/07/30 02:14:11;;;;;;;5.28;1.60;;;;;;;;;;5050720;28;20025;-59
2022/07/30 02:16:38;;;;;;;6.03;1.40;;;;;;;;;;5050663;28;20471;-59
2022/07/30 02:19:11;;;;;;;3.40;1.48;;;;;;;;;;5041135;28;20029;-60
2022/07/30 02:21:38;;;;;;;4.22;1.65;;;;;;;;;;5049790;28;20058;-60
2022/07/30 02:24:05;;;;;;;3.47;1.80;;;;;;;;;;5043172;28;20052;-59
2022/07/30 02:26:32;;;;;;;4.85;1.35;;;;;;;;;;5049549;28;20029;-59
2022/07/30 02:29:00;;;;;;;4.38;1.80;;;;;;;;;;5048701;28;20048;-61
2022/07/30 02:31:27;;;;;;;7.93;2.13;;;;;;;;;;5048652;28;20021;-60
2022/07/30 02:33:55;;;;;;;6.45;1.73;;;;;;;;;;5044838;28;20480;-60
2022/07/30 02:36:22;;;;;;;3.95;1.88;;;;;;;;;;5045661;28;20025;-60
2022/07/30 02:38:51;;;;;;;2.85;1.65;;;;;;;;;;5048275;28;20025;-59
2022/07/30 02:41:19;;;;;;;5.45;1.63;;;;;;;;;;5048795;28;20032;-60
2022/07/30 02:43:45;;;;;;;4.47;1.90;;;;;;;;;;5046760;28;20025;-60
2022/07/30 02:46:12;;;;;;;4.30;2.28;;;;;;;;;;5044487;28;20215;-60
2022/07/30 02:48:39;;;;;;;2.15;1.40;;;;;;;;;;5043343;28;20026;-61
2022/07/30 02:51:06;;;;;;;5.40;1.77;;;;;;;;;;5036699;28;20156;-59
2022/07/30 02:53:33;;;;;;;4.88;1.73;;;;;;;;;;5050731;28;20540;-59
2022/07/30 02:56:00;;;;;;;2.58;1.40;;;;;;;;;;5046149;28;20025;-60
2022/07/30 02:58:26;;;;;;;4.25;2.03;;;;;;;;;;5037438;28;20040;-60
2022/07/30 03:00:54;;;;;;;4.85;1.70;;;;;;;;;;5046738;28;20059;-60
2022/07/30 03:03:21;;;;;;;2.10;1.40;;;;;;;;;;5047186;28;20041;-59
2022/07/30 03:05:49;;;;;;;5.78;1.40;;;;;;;;;;5048945;28;20036;-60
2022/07/30 03:08:15;;;;;;;2.42;1.45;;;;;;;;;;5045423;28;20120;-60
2022/07/30 03:10:43;;;;;;;3.25;1.50;;;;;;;;;;5047292;28;20374;-59
2022/07/30 03:13:10;;;;;;;4.22;1.92;;;;;;;;;;5039568;28;20131;-59
2022/07/30 03:15:36;;;;;;;3.42;1.70;;;;;;;;;;5048737;28;20080;-60
2022/07/30 03:18:03;;;;;;;4.93;1.60;;;;;;;;;;5050297;28;20091;-60
2022/07/30 03:20:30;;;;;;;5.18;1.75;;;;;;;;;;5040643;28;20043;-60
2022/07/30 03:22:58;;;;;;;4.82;1.95;;;;;;;;;;5043652;28;20486;-59
2022/07/30 03:25:25;;;;;;;4.07;1.80;;;;;;;;;;5053793;28;20035;-60
2022/07/30 03:27:52;;;;;;;5.50;1.77;;;;;;;;;;5051251;28;20136;-60
2022/07/30 03:30:18;;;;;;;5.30;2.15;;;;;;;;;;5053660;28;20104;-60
2022/07/30 03:32:44;;;;;;;6.10;1.85;;;;;;;;;;5046171;28;20021;-60
2022/07/30 03:35:11;;;;;;;4.53;1.73;;;;;;;;;;5053254;28;20033;-60
2022/07/30 03:37:38;;;;;;;3.80;1.63;;;;;;;;;;5053115;28;20027;-60
2022/07/30 03:40:05;;;;;;;3.97;1.50;;;;;;;;;;5051085;28;20028;-60
2022/07/30 03:42:31;;;;;;;3.85;1.50;;;;;;;;;;5050111;28;20045;-61
2022/07/30 03:44:57;;;;;;;6.70;2.15;;;;;;;;;;5065100;28;20025;-59
2022/07/30 03:47:24;;;;;;;3.53;1.88;;;;;;;;;;5053548;28;20468;-59
2022/07/30 03:49:51;;;;;;;7.10;2.20;;;;;;;;;;5050608;28;20040;-60
2022/07/30 03:52:17;;;;;;;3.22;1.60;;;;;;;;;;5045092;28;20053;-60
2022/07/30 03:54:44;;;;;;;3.85;1.58;;;;;;;;;;5047450;28;20492;-59
2022/07/30 03:57:10;;;;;;;8.95;1.80;;;;;;;;;;5053854;28;20523;-59
2022/07/30 03:59:36;;;;;;;5.53;1.75;;;;;;;;;;5065034;28;20778;-59
2022/07/30 04:02:02;;;;;;;3.35;1.80;;;;;;;;;;5050335;28;20040;-60
2022/07/30 04:04:29;;;;;;;2.33;1.40;;;;;;;;;;5034139;28;20041;-60
2022/07/30 04:06:55;;;;;;;3.88;1.63;;;;;;;;;;5050892;28;20036;-60
2022/07/30 04:09:21;;;;;;;3.80;1.75;;;;;;;;;;5051964;28;20037;-61
2022/07/30 04:11:47;;;;;;;2.20;1.38;;;;;;;;;;5047192;28;20361;-61
2022/07/30 04:14:13;;;;;;;5.68;1.88;;;;;;;;;;5048057;28;20037;-61
2022/07/30 04:16:49;;;;;;;7.38;1.70;;;;;;;;;;5052869;28;20488;-60
2022/07/30 04:19:27;;;;;;;3.30;1.40;;;;;;;;;;5053348;28;20053;-60
2022/07/30 04:21:55;;;;;;;3.17;1.50;;;;;;;;;;5051219;28;20480;-60
2022/07/30 04:24:21;;;;;;;4.03;1.50;;;;;;;;;;5047592;28;20478;-60
2022/07/30 04:26:48;;;;;;;4.32;1.40;;;;;;;;;;5050781;28;20059;-60
2022/07/30 04:29:15;;;;;;;4.00;1.42;;;;;;;;;;5045692;28;20029;-60
2022/07/30 04:31:41;;;;;;;6.35;1.80;;;;;;;;;;5033639;28;20021;-60
2022/07/30 04:34:07;;;;;;;9.27;1.85;;;;;;;;;;5034685;28;20609;-59
2022/07/30 04:36:34;;;;;;;3.65;1.60;;;;;;;;;;5052975;28;20021;-60
2022/07/30 04:39:00;;;;;;;4.47;1.63;;;;;;;;;;5051464;28;20091;-60
2022/07/30 04:41:26;;;;;;;5.13;2.03;;;;;;;;;;5048074;28;20156;-60
2022/07/30 04:43:53;;;;;;;2.95;1.88;;;;;;;;;;5049274;28;20036;-60
2022/07/30 04:46:19;;;;;;;5.43;1.73;;;;;;;;;;5046253;28;20032;-59
2022/07/30 04:48:45;;;;;;;5.40;1.67;;;;;;;;;;5048530;28;20029;-59
2022/07/30 04:51:13;;;;;;;3.38;1.80;;;;;;;;;;5047318;28;20084;-60
2022/07/30 04:53:40;;;;;;;3.08;1.73;;;;;;;;;;5045482;28;20043;-60
2022/07/30 04:56:06;;;;;;;4.95;1.50;;;;;;;;;;5052404;28;20082;-60
2022/07/30 04:58:34;;;;;;;6.88;1.90;;;;;;;;;;5065066;28;20797;-60
2022/07/30 05:01:01;;;;;;;5.07;1.80;;;;;;;;;;5049848;28;20027;-60
2022/07/30 05:03:28;;;;;;;2.90;1.77;;;;;;;;;;5046704;28;20112;-60
2022/07/30 05:05:55;;;;;;;4.25;2.00;;;;;;;;;;5052406;28;20108;-60
2022/07/30 05:08:21;;;;;;;3.95;1.92;;;;;;;;;;5052123;28;20033;-60
2022/07/30 05:10:47;;;;;;;8.98;1.73;;;;;;;;;;5051077;28;20051;-61
2022/07/30 05:13:14;;;;;;;2.58;1.85;;;;;;;;;;5041412;28;20065;-60
2022/07/30 05:15:40;;;;;;;3.75;2.30;;;;;;;;;;5049982;28;20068;-59
2022/07/30 05:18:06;;;;;;;7.97;2.00;;;;;;;;;;5057561;28;20025;-61
2022/07/30 05:20:32;;;;;;;4.18;1.88;;;;;;;;;;5051912;28;20028;-60
2022/07/30 05:22:58;;;;;;;4.72;1.98;;;;;;;;;;5043101;28;20132;-60
2022/07/30 05:25:24;;;;;;;2.75;1.92;;;;;;;;;;5050785;28;20059;-60
2022/07/30 05:27:51;;;;;;;5.82;2.22;;;;;;;;;;5050420;28;20029;-60
2022/07/30 05:30:17;;;;;;;5.13;2.00;;;;;;;;;;5039503;28;20083;-59
2022/07/30 05:32:43;;;;;;;4.38;1.80;;;;;;;;;;5048070;28;20037;-60
2022/07/30 05:35:09;;;;;;;4.68;1.73;;;;;;;;;;5048046;28;20040;-61
2022/07/30 05:37:35;;;;;;;4.80;1.90;;;;;;;;;;5051341;28;20087;-60
2022/07/30 05:40:01;;;;;;;6.85;1.85;;;;;;;;;;5051439;28;20508;-59
2022/07/30 05:42:27;;;;;;;3.40;2.10;;;;;;;;;;5050251;28;20021;-59
2022/07/30 05:44:53;;;;;;;6.50;2.13;;;;;;;;;;5039155;28;20412;-60
2022/07/30 05:47:19;;;;;;;4.75;1.50;;;;;;;;;;5046698;28;20028;-60
2022/07/30 05:49:46;;;;;;;4.72;1.95;;;;;;;;;;5032518;28;20029;-60
2022/07/30 05:52:12;;;;;;;4.18;1.98;;;;;;;;;;5049512;28;20043;-60
2022/07/30 05:54:38;;;;;;;2.80;1.70;;;;;;;;;;5041745;28;20548;-59
2022/07/30 05:57:04;;;;;;;5.05;1.85;;;;;;;;;;5051359;28;20117;-60
2022/07/30 05:59:30;;;;;;;6.13;1.75;;;;;;;;;;5060638;28;20025;-60
2022/07/30 06:01:56;;;;;;;6.03;2.03;;;;;;;;;;5048273;28;20043;-60
2022/07/30 06:04:22;;;;;;;3.78;1.77;;;;;;;;;;5038784;28;20091;-60
2022/07/30 06:06:48;;;;;;;5.60;1.90;;;;;;;;;;5050854;28;20435;-60
2022/07/30 06:09:14;;;;;;;5.03;1.90;;;;;;;;;;5051291;28;20056;-60
2022/07/30 06:11:40;;;;;;;4.63;1.83;;;;;;;;;;5049620;28;20429;-60
2022/07/30 06:14:06;;;;;;;6.55;1.90;;;;;;;;;;5049521;28;20033;-61
2022/07/30 06:16:32;;;;;;;5.90;1.70;;;;;;;;;;5047774;28;20481;-59
2022/07/30 06:18:58;;;;;;;4.10;1.50;;;;;;;;;;5050020;28;20468;-60
2022/07/30 06:21:24;;;;;;;4.65;1.60;;;;;;;;;;5047705;28;20044;-60
2022/07/30 06:23:50;;;;;;;6.25;1.88;;;;;;;;;;5042385;28;20044;-60
2022/07/30 06:26:16;;;;;;;5.63;1.65;;;;;;;;;;5049457;28;20511;-61
2022/07/30 06:28:42;;;;;;;3.85;1.50;;;;;;;;;;5046180;28;20052;-61
2022/07/30 06:31:08;;;;;;;4.15;1.40;;;;;;;;;;5050895;28;20021;-60
2022/07/30 06:33:34;;;;;;;6.18;1.35;;;;;;;;;;5043418;28;20021;-61
2022/07/30 06:36:00;;;;;;;4.32;1.40;;;;;;;;;;5050508;28;20464;-60
2022/07/30 06:38:26;;;;;;;4.43;1.90;;;;;;;;;;5049852;28;20378;-61
2022/07/30 06:40:52;;;;;;;4.57;1.52;;;;;;;;;;5047675;28;20064;-60
2022/07/30 06:43:19;;;;;;;6.80;1.52;;;;;;;;;;5048119;28;20033;-61
2022/07/30 06:45:45;;;;;;;6.30;2.20;;;;;;;;;;5043018;28;20136;-60
2022/07/30 06:48:11;;;;;;;2.97;1.48;;;;;;;;;;5045969;28;20025;-60
2022/07/30 06:50:37;;;;;;;2.33;1.60;;;;;;;;;;5050462;28;20075;-61
2022/07/30 06:53:04;;;;;;;9.48;1.67;;;;;;;;;;5048575;28;20037;-61
2022/07/30 06:55:30;;;;;;;3.17;1.25;;;;;;;;;;5053296;28;20469;-60
2022/07/30 06:57:56;;;;;;;10.25;1.92;;;;;;;;;;5049343;28;20084;-60
2022/07/30 07:00:22;;;;;;;2.83;1.33;;;;;;;;;;5051339;28;20033;-61
2022/07/30 07:02:47;;;;;;;6.03;1.25;;;;;;;;;;5052753;28;20028;-59
2022/07/30 07:05:13;;;;;;;5.80;1.40;;;;;;;;;;5051531;28;20021;-60
2022/07/30 07:07:39;;;;;;;3.55;1.42;;;;;;;;;;5051298;28;20104;-60
2022/07/30 07:10:06;;;;;;;2.83;1.35;;;;;;;;;;5050346;28;20079;-60
2022/07/30 07:12:32;;;;;;;3.92;1.35;;;;;;;;;;5053225;28;20021;-59
2022/07/30 07:14:58;;;;;;;2.08;1.65;;;;;;;;;;5054529;28;20021;-60
2022/07/30 07:17:24;;;;;;;3.83;1.38;;;;;;;;;;5047512;28;20018;-60
2022/07/30 07:19:50;;;;;;;6.47;1.30;;;;;;;;;;5049304;28;20032;-60
2022/07/30 07:22:16;;;;;;;6.00;2.15;;;;;;;;;;5051185;28;20029;-60
2022/07/30 07:24:42;;;;;;;6.57;1.70;;;;;;;;;;5054257;28;20411;-60
2022/07/30 07:27:08;;;;;;;3.58;1.35;;;;;;;;;;5047124;28;20033;-60
2022/07/30 07:29:34;;;;;;;6.40;1.30;;;;;;;;;;5048332;28;20029;-60
2022/07/30 07:32:00;;;;;;;3.25;1.48;;;;;;;;;;5046229;28;20492;-60
2022/07/30 07:34:26;;;;;;;4.05;1.60;;;;;;;;;;5053640;28;20083;-60
2022/07/30 07:36:52;;;;;;;5.88;1.65;;;;;;;;;;5051327;28;20025;-60
2022/07/30 07:39:18;;;;;;;4.43;1.42;;;;;;;;;;5048517;28;20029;-60
2022/07/30 07:41:44;;;;;;;1.52;0.98;;;;;;;;;;5055232;28;20104;-61
2022/07/30 07:44:10;;;;;;;9.52;1.55;;;;;;;;;;5043040;28;20044;-60
2022/07/30 07:46:36;;;;;;;8.18;1.25;;;;;;;;;;5036670;28;20444;-61
2022/07/30 07:49:02;;;;;;;3.78;1.20;;;;;;;;;;5056541;28;20043;-60
2022/07/30 07:51:28;;;;;;;3.08;1.42;;;;;;;;;;5049941;28;20028;-61
2022/07/30 07:53:54;;;;;;;6.65;1.52;;;;;;;;;;5052111;28;20108;-61
2022/07/30 07:56:20;;;;;;;5.78;1.25;;;;;;;;;;5052479;28;20447;-61
2022/07/30 07:58:47;;;;;;;4.97;1.40;;;;;;;;;;5048550;28;20489;-61
2022/07/30 08:01:13;;;;;;;5.50;1.15;;;;;;;;;;5054642;28;20030;-60
2022/07/30 08:03:39;;;;;;;5.28;1.48;;;;;;;;;;5045085;28;20017;-60
2022/07/30 08:06:05;;;;;;;3.88;1.40;;;;;;;;;;5053458;28;20032;-61
2022/07/30 08:08:31;;;;;;;5.10;1.40;;;;;;;;;;5033667;28;20488;-61
2022/07/30 08:10:57;;;;;;;2.50;1.27;;;;;;;;;;5051881;28;20021;-60
2022/07/30 08:13:23;;;;;;;8.73;1.42;;;;;;;;;;5052473;28;20056;-62
2022/07/30 08:15:49;;;;;;;4.80;1.23;;;;;;;;;;5051362;28;20032;-60
2022/07/30 08:18:15;;;;;;;7.05;1.48;;;;;;;;;;5044696;28;20021;-61
2022/07/30 08:20:41;;;;;;;6.47;1.00;;;;;;;;;;5063537;28;20445;-61
2022/07/30 08:23:07;;;;;;;4.00;1.08;;;;;;;;;;5053093;28;20017;-61
2022/07/30 08:25:33;;;;;;;2.75;1.15;;;;;;;;;;5060832;28;20084;-61
2022/07/30 08:28:01;;;;;;;3.72;1.38;;;;;;;;;;5051481;28;20021;-61
2022/07/30 08:30:28;;;;;;;4.53;1.13;;;;;;;;;;5047697;28;20037;-60
2022/07/30 08:32:54;;;;;;;7.00;1.98;;;;;;;;;;5045149;28;20049;-60
2022/07/30 08:35:20;;;;;;;3.45;1.25;;;;;;;;;;5051273;28;20112;-60
2022/07/30 08:37:46;;;;;;;3.05;1.27;;;;;;;;;;5052403;28;20465;-60
2022/07/30 08:40:12;;;;;;;6.60;1.60;;;;;;;;;;5046585;28;20404;-60
2022/07/30 08:42:38;;;;;;;6.32;1.17;;;;;;;;;;5050432;28;20441;-61
2022/07/30 08:45:05;;;;;;;3.30;1.00;;;;;;;;;;5051884;28;20579;-61
2022/07/30 08:47:32;;;;;;;4.05;1.52;;;;;;;;;;5048704;28;20057;-60
2022/07/30 08:50:05;;;;;;;5.25;1.23;;;;;;;;;;5045990;28;20128;-60
2022/07/30 08:52:37;;;;;;;5.35;1.10;;;;;;;;;;5056315;28;20029;-60
2022/07/30 08:55:06;;;;;;;4.90;1.23;;;;;;;;;;5048908;28;20102;-60
2022/07/30 08:57:35;;;;;;;6.32;1.55;;;;;;;;;;5049024;28;20505;-61
2022/07/30 09:00:02;;;;;;;5.40;1.30;;;;;;;;;;5049448;28;20030;-61
2022/07/30 09:02:32;;;;;;;6.25;1.42;;;;;;;;;;5052526;28;20071;-61
2022/07/30 09:04:58;;;;;;;3.80;1.25;;;;;;;;;;5052897;28;20062;-61
2022/07/30 09:07:24;;;;;;;5.18;1.40;;;;;;;;;;5051532;28;20052;-60
2022/07/30 09:09:50;;;;;;;2.55;1.45;;;;;;;;;;5056383;28;20112;-61
2022/07/30 09:12:32;;;;;;;4.38;1.40;;;;;;;;;;5044274;28;20532;-61
2022/07/30 09:15:02;;;;;;;4.90;1.60;;;;;;;;;;5061728;28;20033;-60
2022/07/30 09:17:28;;;;;;;2.30;1.10;;;;;;;;;;5057982;28;20017;-60
2022/07/30 09:20:05;;;;;;;8.75;1.33;;;;;;;;;;5051620;28;20052;-60
2022/07/30 09:22:45;;;;;;;4.43;1.40;;;;;;;;;;5051956;28;20032;-60
2022/07/30 09:25:11;;;;;;;2.70;1.00;;;;;;;;;;5050573;28;20025;-61
2022/07/30 09:27:44;;;;;;;3.58;1.40;;;;;;;;;;5050803;28;20032;-60
2022/07/30 09:30:10;;;;;;;4.35;1.38;;;;;;;;;;5040841;28;20496;-61
2022/07/30 09:32:56;;;;;;;6.47;1.27;;;;;;;;;;5051675;28;20032;-60
2022/07/30 09:35:22;;;;;;;11.93;1.40;;;;;;;;;;5051670;28;20028;-61
2022/07/30 09:37:57;;;;;;;7.05;1.48;;;;;;;;;;5048657;28;20025;-61
2022/07/30 09:40:24;;;;;;;5.35;1.15;;;;;;;;;;5035012;28;20041;-60
2022/07/30 09:43:00;;;;;;;7.55;1.20;;;;;;;;;;5045460;28;20111;-60
2022/07/30 09:45:26;;;;;;;3.75;1.38;;;;;;;;;;5049993;28;20033;-60
2022/07/30 09:47:52;;;;;;;6.07;1.45;;;;;;;;;;5047710;28;20029;-60
2022/07/30 09:50:19;;;;;;;3.72;1.30;;;;;;;;;;5045257;28;20496;-60
2022/07/30 09:52:47;;;;;;;9.32;1.50;;;;;;;;;;5051291;28;20031;-60
2022/07/30 09:55:14;;;;;;;2.28;1.10;;;;;;;;;;5033255;28;20033;-61
2022/07/30 09:57:56;;;;;;;5.20;1.50;;;;;;;;;;5051522;28;20119;-60
2022/07/30 10:00:24;;;;;;;3.28;1.10;;;;;;;;;;5054577;28;20494;-61
2022/07/30 10:02:50;;;;;;;6.53;1.65;;;;;;;;;;5045328;28;20031;-60
2022/07/30 10:05:18;;;;;;;3.65;1.33;;;;;;;;;;5057942;28;20064;-60
2022/07/30 10:07:53;;;;;;;6.22;1.17;;;;;;;;;;5048143;28;20029;-60
2022/07/30 10:10:21;;;;;;;4.63;1.40;;;;;;;;;;5036212;28;20087;-60
2022/07/30 10:12:49;;;;;;;4.03;1.33;;;;;;;;;;5051526;28;20013;-60
2022/07/30 10:15:18;;;;;;;12.02;1.70;;;;;;;;;;5049393;28;20025;-59
2022/07/30 10:17:44;;;;;;;4.90;1.33;;;;;;;;;;5040287;28;20029;-60
2022/07/30 10:20:11;;;;;;;5.68;1.30;;;;;;;;;;5048116;28;20543;-60
2022/07/30 10:22:38;;;;;;;1.58;0.93;;;;;;;;;;5051167;28;20519;-60
2022/07/30 10:25:04;;;;;;;3.75;0.98;;;;;;;;;;5050900;28;20056;-60
2022/07/30 10:27:30;;;;;;;3.78;1.00;;;;;;;;;;5050808;28;20507;-61
2022/07/30 10:29:57;;;;;;;5.50;1.30;;;;;;;;;;5041291;28;20035;-60
2022/07/30 10:32:25;;;;;;;4.20;1.10;;;;;;;;;;5050886;28;20051;-60
2022/07/30 10:34:51;;;;;;;3.97;1.25;;;;;;;;;;5050585;28;20100;-61
2022/07/30 10:37:19;;;;;;;5.05;1.20;;;;;;;;;;5038854;28;20028;-61
2022/07/30 10:39:47;;;;;;;3.10;1.02;;;;;;;;;;5047214;28;20862;-59
2022/07/30 10:42:24;;;;;;;3.83;1.52;;;;;;;;;;5042830;28;20042;-60
2022/07/30 10:45:08;;;;;;;4.10;1.38;;;;;;;;;;5048590;28;20041;-60
2022/07/30 10:47:34;;;;;;;2.78;0.90;;;;;;;;;;5050739;28;20078;-60
2022/07/30 10:50:11;;;;;;;6.88;1.23;;;;;;;;;;5050226;28;20064;-60
2022/07/30 10:52:54;;;;;;;5.82;1.00;;;;;;;;;;5049378;28;20425;-61
2022/07/30 10:55:24;;;;;;;4.28;1.00;;;;;;;;;;5050276;28;20032;-61
2022/07/30 10:57:59;;;;;;;4.60;1.23;;;;;;;;;;5056124;28;20056;-61
2022/07/30 11:00:26;;;;;;;4.65;1.17;;;;;;;;;;5054930;28;20140;-61
2022/07/30 11:03:11;;;;;;;9.85;1.30;;;;;;;;;;5058375;28;20476;-61
2022/07/30 11:05:37;;;;;;;5.88;1.05;;;;;;;;;;5048178;28;20033;-61
2022/07/30 11:08:26;;;;;;;2.50;0.82;;;;;;;;;;5040977;28;20037;-60
2022/07/30 11:10:52;;;;;;;2.50;0.75;;;;;;;;;;5027852;28;20059;-59
2022/07/30 11:13:17;;;;;;;1.20;0.70;;;;;;;;;;5050548;28;20037;-57
2022/07/30 11:15:54;;;;;;;1.58;0.70;;;;;;;;;;5050692;28;20129;-60
2022/07/30 11:18:21;;;;;;;1.98;0.80;;;;;;;;;;5051036;28;20037;-61
2022/07/30 11:21:05;;;;;;;5.55;0.85;;;;;;;;;;5050178;28;20519;-60
2022/07/30 11:23:35;;;;;;;1.20;0.73;;;;;;;;;;5050555;28;20025;-60
2022/07/30 11:26:01;;;;;;;1.83;0.80;;;;;;;;;;5048738;28;20047;-61
2022/07/30 11:28:45;;;;;;;1.95;1.00;;;;;;;;;;5043849;28;20487;-60
2022/07/30 11:31:25;;;;;;;2.40;0.60;;;;;;;;;;5049919;28;20087;-60
2022/07/30 11:33:51;;;;;;;2.47;0.90;;;;;;;;;;5046568;28;20025;-60
2022/07/30 11:36:17;;;;;;;3.95;0.80;;;;;;;;;;5046900;28;20044;-61
2022/07/30 11:38:57;;;;;;;1.40;0.60;;;;;;;;;;5051283;28;20112;-61
2022/07/30 11:41:23;;;;;;;4.05;0.70;;;;;;;;;;5051747;28;20488;-61
2022/07/30 11:44:09;;;;;;;2.30;0.73;;;;;;;;;;5050126;28;20028;-60
2022/07/30 11:46:35;;;;;;;3.00;0.90;;;;;;;;;;5050381;28;20036;-61
2022/07/30 11:49:07;;;;;;;2.58;0.80;;;;;;;;;;5052182;28;20040;-61
2022/07/30 11:51:46;;;;;;;5.03;0.88;;;;;;;;;;5050650;28;20475;-61
2022/07/30 11:54:12;;;;;;;4.85;0.90;;;;;;;;;;5053967;28;20036;-60
2022/07/30 11:56:52;;;;;;;4.95;0.77;;;;;;;;;;5045633;28;20072;-62
2022/07/30 11:59:18;;;;;;;2.05;0.88;;;;;;;;;;5053626;28;20341;-62
2022/07/30 12:01:48;;;;;;;6.20;1.00;;;;;;;;;;5055519;28;20040;-61
2022/07/30 12:04:14;;;;;;;5.65;0.90;;;;;;;;;;5051996;28;20096;-61
2022/07/30 12:06:44;;;;;;;5.75;1.13;;;;;;;;;;5046874;28;20112;-61
2022/07/30 12:09:11;;;;;;;1.90;0.85;;;;;;;;;;5053017;28;20064;-61
2022/07/30 12:11:37;;;;;;;2.72;0.80;;;;;;;;;;5046642;28;20104;-61
2022/07/30 12:14:03;;;;;;;2.35;0.80;;;;;;;;;;5047513;28;20025;-61
2022/07/30 12:16:30;;;;;;;2.30;0.80;;;;;;;;;;5053201;28;20077;-62
2022/07/30 12:19:00;;;;;;;1.40;0.88;;;;;;;;;;5052091;28;20064;-59
2022/07/30 12:21:26;;;;;;;7.65;0.93;;;;;;;;;;5052941;28;20033;-61
2022/07/30 12:23:54;;;;;;;4.60;0.90;;;;;;;;;;5053307;28;20044;-61
2022/07/30 12:26:40;;;;;;;3.38;0.70;;;;;;;;;;5053285;28;20033;-61
2022/07/30 12:29:12;;;;;;;3.58;1.10;;;;;;;;;;5041901;28;20055;-61
2022/07/30 12:31:39;;;;;;;3.90;1.05;;;;;;;;;;5051377;28;20036;-61
2022/07/30 12:34:05;;;;;;;2.30;0.90;;;;;;;;;;5051354;28;20123;-61
2022/07/30 12:36:34;;;;;;;3.22;0.82;;;;;;;;;;5053019;28;20096;-61
2022/07/30 12:39:05;;;;;;;2.08;0.90;;;;;;;;;;5052646;28;20083;-61
2022/07/30 12:41:41;;;;;;;4.20;0.88;;;;;;;;;;5047282;28;20037;-62
2022/07/30 12:44:07;;;;;;;2.30;0.98;;;;;;;;;;5046068;28;20503;-60
2022/07/30 12:46:37;;;;;;;5.85;0.90;;;;;;;;;;5052907;28;20029;-61
2022/07/30 12:49:04;;;;;;;1.65;0.80;;;;;;;;;;5050826;28;20037;-61
2022/07/30 12:51:34;;;;;;;2.80;0.70;;;;;;;;;;5051408;28;20067;-61
2022/07/30 12:54:01;;;;;;;3.25;0.80;;;;;;;;;;5052484;28;20407;-62
2022/07/30 12:56:30;;;;;;;7.07;0.75;;;;;;;;;;5052636;28;20033;-61
2022/07/30 12:58:58;;;;;;;1.38;0.70;;;;;;;;;;5064144;28;20128;-61
2022/07/30 13:01:40;;;;;;;1.90;0.70;;;;;;;;;;5052421;28;20087;-62
2022/07/30 13:04:06;;;;;;;3.03;0.70;;;;;;;;;;5052444;28;20032;-61
2022/07/30 13:06:32;;;;;;;1.27;0.75;;;;;;;;;;5040143;28;20040;-61
2022/07/30 13:08:59;;;;;;;2.80;0.88;;;;;;;;;;5052985;28;20037;-62
2022/07/30 13:11:26;;;;;;;3.15;1.10;;;;;;;;;;5048265;28;20030;-61
2022/07/30 13:13:53;;;;;;;4.38;0.85;;;;;;;;;;5048353;28;20032;-61
2022/07/30 13:16:19;;;;;;;2.90;0.60;;;;;;;;;;5046840;28;20101;-61
2022/07/30 13:18:45;;;;;;;2.95;0.70;;;;;;;;;;5052051;28;20068;-61
2022/07/30 13:21:11;;;;;;;1.45;0.95;;;;;;;;;;5051563;28;20059;-62
2022/07/30 13:23:38;;;;;;;2.97;0.80;;;;;;;;;;5043253;28;20076;-61
2022/07/30 13:26:05;;;;;;;3.15;0.80;;;;;;;;;;5049290;28;20473;-61
2022/07/30 13:28:32;;;;;;;1.70;0.90;;;;;;;;;;5051803;28;20484;-60
2022/07/30 13:30:58;;;;;;;1.85;0.60;;;;;;;;;;5051631;28;20108;-60
2022/07/30 13:33:24;;;;;;;1.75;0.90;;;;;;;;;;5045797;28;20581;-61
2022/07/30 13:35:50;;;;;;;2.15;0.70;;;;;;;;;;5051583;28;20468;-61
2022/07/30 13:38:16;;;;;;;2.50;1.00;;;;;;;;;;5049127;28;20036;-60
2022/07/30 13:40:42;;;;;;;1.95;0.60;;;;;;;;;;5043973;28;20075;-61
2022/07/30 13:43:08;;;;;;;2.05;0.52;;;;;;;;;;5033437;28;20556;-60
2022/07/30 13:45:35;;;;;;;4.80;0.68;;;;;;;;;;5044655;28;20124;-61
2022/07/30 13:48:01;;;;;;;3.15;1.13;;;;;;;;;;5049608;28;20028;-61
2022/07/30 13:50:27;;;;;;;2.25;0.60;;;;;;;;;;5057461;28;20037;-61
2022/07/30 13:52:53;;;;;;;3.72;0.90;;;;;;;;;;5051211;28;20021;-61
2022/07/30 13:55:19;;;;;;;1.80;0.75;;;;;;;;;;5051503;28;20025;-61
2022/07/30 13:57:45;;;;;;;1.70;0.70;;;;;;;;;;5035807;28;20037;-60
2022/07/30 14:00:12;;;;;;;2.22;0.60;;;;;;;;;;5068352;28;20032;-60
2022/07/30 14:02:38;;;;;;;3.22;0.73;;;;;;;;;;5061254;28;20029;-62
2022/07/30 14:05:07;;;;;;;2.33;0.82;;;;;;;;;;5050997;28;20392;-61
2022/07/30 14:07:34;;;;;;;3.13;0.68;;;;;;;;;;5039830;28;20381;-60
2022/07/30 14:10:00;;;;;;;3.17;0.90;;;;;;;;;;5052524;28;20038;-61
2022/07/30 14:12:25;;;;;;;4.85;1.00;;;;;;;;;;5021527;28;20029;-62
2022/07/30 14:14:51;;;;;;;1.50;0.73;;;;;;;;;;5043754;28;20025;-61
2022/07/30 14:17:17;;;;;;;5.03;0.90;;;;;;;;;;5057734;28;20544;-62
2022/07/30 14:19:43;;;;;;;2.25;0.70;;;;;;;;;;5047557;28;20041;-62
2022/07/30 14:22:09;;;;;;;1.83;0.57;;;;;;;;;;5046168;28;20512;-61
2022/07/30 14:24:35;;;;;;;3.45;0.68;;;;;;;;;;5046533;28;20032;-61
2022/07/30 14:27:01;;;;;;;3.80;0.70;;;;;;;;;;5047471;28;20397;-61
2022/07/30 14:29:28;;;;;;;2.08;0.50;;;;;;;;;;5047720;28;20103;-62
2022/07/30 14:31:54;;;;;;;1.17;0.50;;;;;;;;;;5045720;28;20026;-62
2022/07/30 14:34:20;;;;;;;1.70;0.57;;;;;;;;;;5044977;28;20084;-62
2022/07/30 14:36:46;;;;;;;2.10;0.60;;;;;;;;;;5055747;28;20021;-61
2022/07/30 14:39:12;;;;;;;1.13;0.60;;;;;;;;;;5044384;28;20029;-61
2022/07/30 14:41:38;;;;;;;1.42;0.68;;;;;;;;;;5058138;28;20021;-61
2022/07/30 14:44:05;;;;;;;0.82;0.50;;;;;;;;;;5049193;28;20060;-61
2022/07/30 14:46:31;;;;;;;1.77;0.90;;;;;;;;;;5052298;28;20033;-61
2022/07/30 14:48:57;;;;;;;2.85;0.63;;;;;;;;;;5048956;28;20495;-61